Terminal Aerodrome Forecast
Issued by NWS Medford, OR

Home | Current Version | Previous Version | Text Only | Print | Product List | Glossary On
Versions: 1 2 3 4 5 6 7 8 9 10 11 12 13 14 15 16 17 18 19
000
FTUS46 KMFR 250159 AAA
TAFMFR
TAF AMD
KMFR 250159Z 2502/2524 28006KT P6SM -SHRA SCT035 OVC050
     FM250700 VRB03KT P6SM -SHRA BKN025 OVC035
     FM251000 VRB03KT 5SM -SHRA BR OVC020
     FM251800 32004KT P6SM FEW020 BKN040=

USA.gov is the U.S. government's official web portal to all federal, state and local government web resources and services.